Time;durP1;ratioP1;P1;durP2;ratioP2;P2;SDS_P1;SDS_P2;PMS_P1;PMS_P2;Temp;Humidity;BMP_temperature;BMP_pressure;BME280_temperature;BME280_humidity;BME280_pressure;Samples;Min_cycle;Max_cycle;Signal;HPM_P1;HPM_P2
2022/06/11 00:00:53;;;;;;;9.50;4.05;;;;;;;15.30;95.52;101990.38;5049621;28;20108;-87
2022/06/11 00:03:19;;;;;;;9.98;4.43;;;;;;;15.26;95.92;101987.38;5050544;28;20016;-87
2022/06/11 00:05:45;;;;;;;13.00;4.45;;;;;;;15.29;96.35;101989.56;5053685;28;20425;-86
2022/06/11 00:08:11;;;;;;;11.80;4.27;;;;;;;15.27;96.49;101986.31;5053929;28;20029;-87
2022/06/11 00:10:37;;;;;;;8.60;4.90;;;;;;;15.21;97.64;101983.84;5053244;28;20624;-87
2022/06/11 00:13:04;;;;;;;6.78;4.53;;;;;;;15.23;98.31;101987.09;5053764;28;20036;-86
2022/06/11 00:15:30;;;;;;;11.77;4.63;;;;;;;15.23;98.87;101985.22;5053632;28;20148;-86
2022/06/11 00:17:57;;;;;;;11.88;4.47;;;;;;;15.23;98.70;101989.81;5053297;28;20404;-87
2022/06/11 00:20:24;;;;;;;9.70;4.50;;;;;;;15.19;98.43;101977.91;5052980;28;20095;-87
2022/06/11 00:22:49;;;;;;;11.43;4.73;;;;;;;15.15;97.92;101977.63;5053702;28;20358;-87
2022/06/11 00:25:15;;;;;;;6.38;4.03;;;;;;;15.14;98.06;101976.78;5053685;28;20100;-87
2022/06/11 00:27:40;;;;;;;8.87;3.90;;;;;;;15.11;97.80;101987.31;5053315;28;20533;-86
2022/06/11 00:30:11;;;;;;;9.47;4.30;;;;;;;15.08;98.38;101979.72;5052807;28;20029;-86
2022/06/11 00:32:37;;;;;;;8.13;4.22;;;;;;;15.05;98.31;101982.94;5034868;28;20021;-86
2022/06/11 00:35:03;;;;;;;7.90;3.97;;;;;;;15.02;99.30;101986.97;5053180;28;20554;-85
2022/06/11 00:37:29;;;;;;;7.22;3.88;;;;;;;15.01;98.48;101992.59;5053004;28;20100;-86
2022/06/11 00:39:55;;;;;;;7.25;3.78;;;;;;;14.95;98.19;101981.81;5053209;28;20474;-86
2022/06/11 00:42:27;;;;;;;6.93;3.87;;;;;;;14.95;98.50;101981.81;5052751;28;20070;-87
2022/06/11 00:45:12;;;;;;;7.20;4.18;;;;;;;14.95;98.46;101983.66;5053117;28;20044;-88
2022/06/11 00:47:38;;;;;;;9.45;4.38;;;;;;;14.92;99.88;101979.63;5052705;28;20032;-87
2022/06/11 00:50:27;;;;;;;10.95;4.72;;;;;;;14.89;99.03;101982.81;5052947;28;20025;-87
2022/06/11 00:52:56;;;;;;;8.98;4.53;;;;;;;14.88;100.00;101977.69;5052814;28;20031;-87
2022/06/11 00:55:32;;;;;;;12.53;4.50;;;;;;;14.89;100.00;101980.13;5052987;28;20033;-86
2022/06/11 00:58:10;;;;;;;8.47;4.27;;;;;;;14.85;100.00;101970.91;5052589;28;20276;-87
2022/06/11 01:00:41;;;;;;;10.60;4.38;;;;;;;14.82;100.00;101979.53;5052267;28;20116;-86
2022/06/11 01:03:10;;;;;;;10.20;4.28;;;;;;;14.76;100.00;101970.59;5034840;28;20104;-86
2022/06/11 01:05:38;;;;;;;10.55;4.60;;;;;;;14.73;100.00;101973.78;5052554;28;20025;-86
2022/06/11 01:08:40;;;;;;;8.38;4.30;;;;;;;14.71;100.00;101977.81;5052372;28;20025;-86
2022/06/11 01:11:22;;;;;;;7.88;3.85;;;;;;;14.68;100.00;101974.56;5052373;28;20037;-87
2022/06/11 01:14:25;;;;;;;8.48;4.15;;;;;;;14.65;100.00;101971.56;5034600;28;20088;-86
2022/06/11 01:17:21;;;;;;;6.25;4.05;;;;;;;14.61;100.00;101970.44;5051488;28;20045;-86
2022/06/11 01:20:07;;;;;;;8.63;4.20;;;;;;;14.54;100.00;101979.53;5052681;28;20112;-86
2022/06/11 01:23:00;;;;;;;10.80;4.30;;;;;;;14.49;100.00;101973.28;5052267;28;20108;-87
2022/06/11 01:25:35;;;;;;;7.90;4.53;;;;;;;14.49;100.00;101965.19;5052728;28;20274;-86
2022/06/11 01:28:30;;;;;;;5.97;4.00;;;;;;;14.48;100.00;101971.66;5052208;28;20480;-87
2022/06/11 01:31:07;;;;;;;7.35;5.03;;;;;;;14.41;100.00;101976.47;5052257;28;20039;-86
2022/06/11 01:33:50;;;;;;;8.23;4.90;;;;;;;14.42;100.00;101970.00;5050959;28;20498;-86
2022/06/11 01:36:23;;;;;;;11.50;5.45;;;;;;;14.38;100.00;101965.13;5052132;28;20079;-86
2022/06/11 01:39:04;;;;;;;9.63;5.43;;;;;;;14.41;100.00;101973.78;5051405;28;20128;-86
2022/06/11 01:42:04;;;;;;;8.23;5.50;;;;;;;14.33;100.00;101962.38;5051275;28;20116;-86
2022/06/11 01:44:34;;;;;;;9.70;5.65;;;;;;;14.36;100.00;101961.03;5051701;28;20024;-87
2022/06/11 01:47:01;;;;;;;10.25;5.00;;;;;;;14.35;100.00;101956.72;5051583;28;20369;-86
2022/06/11 01:49:27;;;;;;;6.80;4.90;;;;;;;14.33;100.00;101961.56;5051789;28;20032;-86
2022/06/11 01:52:16;;;;;;;9.57;4.77;;;;;;;14.29;100.00;101963.94;5051056;28;20280;-86
2022/06/11 01:55:19;;;;;;;5.97;4.33;;;;;;;14.23;100.00;101962.28;5051912;28;20476;-86
2022/06/11 01:57:54;;;;;;;9.03;4.87;;;;;;;14.22;100.00;101961.47;5051319;28;20779;-86
2022/06/11 02:00:31;;;;;;;10.43;4.63;;;;;;;14.22;100.00;101958.75;5051168;28;20033;-86
2022/06/11 02:03:21;;;;;;;6.28;4.43;;;;;;;14.25;100.00;101962.81;5033670;28;20115;-87
2022/06/11 02:06:18;;;;;;;6.43;4.10;;;;;;;14.19;100.00;101953.06;5051670;28;20029;-86
2022/06/11 02:08:46;;;;;;;7.13;4.15;;;;;;;14.23;100.00;101965.00;5051543;28;20029;-86
2022/06/11 02:11:22;;;;;;;6.55;3.83;;;;;;;14.14;100.00;101961.09;5051390;28;20025;-87
2022/06/11 02:13:56;;;;;;;5.47;3.90;;;;;;;14.13;100.00;101960.31;5051668;28;20051;-86
2022/06/11 02:16:28;;;;;;;6.93;4.07;;;;;;;14.12;100.00;101955.16;5051326;28;20025;-87
2022/06/11 02:18:56;;;;;;;9.38;3.80;;;;;;;14.13;100.00;101962.16;5051291;28;20051;-87
2022/06/11 02:21:28;;;;;;;7.10;4.00;;;;;;;14.12;100.00;101955.97;5050955;28;20028;-87
2022/06/11 02:24:13;;;;;;;6.87;4.17;;;;;;;14.09;100.00;101965.38;5051386;28;20359;-87
2022/06/11 02:26:43;;;;;;;8.68;4.15;;;;;;;14.07;100.00;101959.41;5051118;28;20029;-87
2022/06/11 02:29:12;;;;;;;5.60;3.58;;;;;;;14.04;100.00;101953.72;5033175;28;20480;-87
2022/06/11 02:32:02;;;;;;;8.00;3.63;;;;;;;14.03;100.00;101966.41;5049492;28;20124;-87
2022/06/11 02:34:27;;;;;;;11.73;3.80;;;;;;;14.01;100.00;101960.44;5053012;28;20029;-87
2022/06/11 02:37:04;;;;;;;8.23;3.90;;;;;;;14.00;100.00;101974.16;5052572;28;20108;-86
2022/06/11 02:39:33;;;;;;;5.65;3.70;;;;;;;13.96;100.00;101971.16;5052238;28;20028;-86
2022/06/11 02:42:00;;;;;;;6.43;4.10;;;;;;;13.93;100.00;101971.66;5051045;28;20037;-86
2022/06/11 02:44:26;;;;;;;7.57;3.50;;;;;;;13.94;100.00;101967.91;5051773;28;20032;-87
2022/06/11 02:46:52;;;;;;;6.93;3.40;;;;;;;13.93;100.00;101977.88;5051526;28;20033;-87
2022/06/11 02:49:25;;;;;;;5.85;3.70;;;;;;;13.92;100.00;101983.50;5051629;28;20032;-87
2022/06/11 02:51:54;;;;;;;9.43;3.83;;;;;;;13.93;100.00;101985.13;5050676;28;20067;-87
2022/06/11 02:54:21;;;;;;;8.73;3.53;;;;;;;13.94;100.00;101992.16;5050934;28;20116;-85
2022/06/11 02:56:50;;;;;;;6.40;3.57;;;;;;;13.96;100.00;101986.53;5050737;28;20307;-87
2022/06/11 02:59:15;;;;;;;7.50;3.70;;;;;;;13.97;100.00;101986.25;5050358;28;20224;-87
2022/06/11 03:01:42;;;;;;;8.18;3.47;;;;;;;13.94;100.00;101989.47;5050794;28;20044;-87
2022/06/11 03:04:08;;;;;;;7.22;4.03;;;;;;;13.88;100.00;101985.06;5051226;28;20061;-88
2022/06/11 03:06:33;;;;;;;11.00;4.00;;;;;;;13.85;100.00;101989.09;5051098;28;20400;-86
2022/06/11 03:08:59;;;;;;;5.53;3.75;;;;;;;13.79;100.00;101984.69;5050295;28;20095;-87
2022/06/11 03:11:26;;;;;;;10.73;3.97;;;;;;;13.83;100.00;101985.84;5050230;28;20060;-87
2022/06/11 03:13:52;;;;;;;11.43;4.10;;;;;;;13.76;100.00;101986.03;5050720;28;20287;-87
2022/06/11 03:16:17;;;;;;;9.68;3.55;;;;;;;13.81;100.00;101992.53;5050761;28;20025;-86
2022/06/11 03:18:43;;;;;;;6.07;3.83;;;;;;;13.85;100.00;101999.06;5050465;28;20044;-87
2022/06/11 03:21:09;;;;;;;8.80;3.47;;;;;;;13.89;100.00;102001.00;5050211;28;20029;-88
2022/06/11 03:23:34;;;;;;;9.43;4.10;;;;;;;14.04;100.00;102003.06;5050969;28;20025;-87
2022/06/11 03:26:00;;;;;;;14.60;4.10;;;;;;;14.15;100.00;102009.34;5050763;28;20042;-87
2022/06/11 03:28:28;;;;;;;11.50;3.90;;;;;;;14.28;100.00;102010.84;5050829;28;20140;-87
2022/06/11 03:30:54;;;;;;;7.32;3.85;;;;;;;14.38;100.00;102013.66;5050136;28;20433;-88
2022/06/11 03:33:20;;;;;;;7.30;3.65;;;;;;;14.47;100.00;102010.50;5050802;28;20405;-87
2022/06/11 03:35:48;;;;;;;7.70;3.83;;;;;;;14.52;100.00;102013.25;5050750;28;20033;-86
2022/06/11 03:38:14;;;;;;;5.22;3.50;;;;;;;14.60;100.00;102014.66;5050479;28;20025;-88
2022/06/11 03:40:40;;;;;;;4.60;3.70;;;;;;;14.65;100.00;102029.00;5054043;28;20021;-88
2022/06/11 03:43:05;;;;;;;6.80;3.55;;;;;;;14.74;100.00;102023.97;5054261;28;20112;-87
2022/06/11 03:45:31;;;;;;;9.10;3.60;;;;;;;14.78;100.00;102027.00;5054057;28;20029;-88
2022/06/11 03:47:57;;;;;;;6.43;3.80;;;;;;;14.82;100.00;102030.78;5054008;28;20033;-89
2022/06/11 03:50:30;;;;;;;8.80;3.50;;;;;;;14.87;100.00;102038.13;5053847;28;20029;-88
2022/06/11 03:52:56;;;;;;;8.77;3.58;;;;;;;14.89;100.00;102041.38;5053774;28;20431;-88
2022/06/11 03:55:30;;;;;;;5.38;3.47;;;;;;;14.86;100.00;102034.59;5054429;28;20112;-88
2022/06/11 03:57:56;;;;;;;6.70;3.70;;;;;;;14.95;100.00;102043.88;5036118;28;20029;-89
2022/06/11 04:03:12;;;;;;;5.85;3.40;;;;;;;14.99;100.00;102058.47;5054137;28;20067;-89
2022/06/11 04:05:40;;;;;;;7.13;3.70;;;;;;;15.03;100.00;102055.25;5053841;28;20499;-87
2022/06/11 04:08:06;;;;;;;7.38;3.10;;;;;;;15.03;100.00;102050.69;5054581;28;20036;-89
2022/06/11 04:10:31;;;;;;;11.75;3.47;;;;;;;15.09;100.00;102056.94;5053811;28;20476;-89
2022/06/11 04:12:57;;;;;;;5.80;3.30;;;;;;;15.09;100.00;102054.22;5053877;28;20029;-88
2022/06/11 04:15:23;;;;;;;6.72;3.90;;;;;;;15.16;100.00;102060.19;5054185;28;20028;-88
2022/06/11 04:17:49;;;;;;;9.50;3.08;;;;;;;15.17;99.60;102061.81;5053755;28;20029;-88
2022/06/11 04:20:15;;;;;;;6.37;3.23;;;;;;;15.25;99.75;102065.94;5053477;28;20036;-88
2022/06/11 04:22:41;;;;;;;7.43;3.10;;;;;;;15.28;99.00;102057.31;5053516;28;20028;-88
2022/06/11 04:25:07;;;;;;;6.25;3.50;;;;;;;15.28;98.43;102058.16;5053627;28;20033;-90
2022/06/11 04:27:33;;;;;;;7.97;3.40;;;;;;;15.37;98.69;102071.97;5053621;28;20025;-88
2022/06/11 04:29:58;;;;;;;6.30;3.37;;;;;;;15.38;97.29;102070.06;5054005;28;20043;-88
2022/06/11 04:32:28;;;;;;;8.97;3.33;;;;;;;15.45;97.69;102070.69;5053078;28;20052;-88
2022/06/11 04:34:54;;;;;;;5.05;3.00;;;;;;;15.50;97.02;102078.81;5053689;28;20033;-88
2022/06/11 04:37:22;;;;;;;9.43;3.30;;;;;;;15.50;96.48;102068.00;5053699;28;20021;-88
2022/06/11 04:39:51;;;;;;;6.70;3.22;;;;;;;15.59;96.80;102081.84;5053781;28;20048;-87
2022/06/11 04:42:17;;;;;;;9.80;2.92;;;;;;;15.64;95.79;102083.75;5053030;28;20021;-87
2022/06/11 04:44:45;;;;;;;8.13;2.90;;;;;;;15.68;95.48;102082.16;5053528;28;20013;-87
2022/06/11 04:47:13;;;;;;;5.07;3.03;;;;;;;15.73;94.21;102079.47;5053818;28;20025;-87
2022/06/11 04:49:39;;;;;;;5.93;3.37;;;;;;;15.81;94.29;102087.09;5052412;28;20477;-88
2022/06/11 04:52:05;;;;;;;5.60;3.17;;;;;;;15.86;93.98;102089.84;5052090;28;20282;-88
2022/06/11 04:54:30;;;;;;;6.63;3.20;;;;;;;15.87;93.58;102083.38;5053232;28;20500;-87
2022/06/11 04:57:00;;;;;;;11.77;2.83;;;;;;;15.92;93.14;102081.75;5053412;28;20143;-87
2022/06/11 04:59:25;;;;;;;7.38;2.90;;;;;;;15.94;93.25;102079.59;5054184;28;20029;-88
2022/06/11 05:01:50;;;;;;;5.87;3.03;;;;;;;16.02;94.12;102081.81;5056932;28;20488;-88
2022/06/11 05:04:16;;;;;;;5.95;3.03;;;;;;;16.06;92.55;102077.50;5067973;28;20029;-89
2022/06/11 05:06:45;;;;;;;5.77;2.93;;;;;;;16.13;93.00;102079.97;5069102;28;20053;-87
2022/06/11 05:09:14;;;;;;;7.25;3.30;;;;;;;16.22;91.33;102081.06;5069304;28;20037;-87
2022/06/11 05:11:40;;;;;;;5.38;2.92;;;;;;;16.38;91.15;102094.63;5038635;28;20162;-88
2022/06/11 05:14:05;;;;;;;7.28;3.10;;;;;;;16.55;89.54;102084.38;5053434;28;20037;-88
2022/06/11 05:16:31;;;;;;;10.30;3.27;;;;;;;16.98;87.63;102096.94;5053624;28;20045;-87
2022/06/11 05:18:57;;;;;;;9.63;3.33;;;;;;;17.31;nan;102095.56;5053945;28;20618;-86
2022/06/11 05:21:22;;;;;;;7.30;2.57;;;;;;;17.50;83.12;102092.28;5053302;28;20055;-87
2022/06/11 05:23:49;;;;;;;7.22;2.75;;;;;;;17.51;82.53;102100.13;5053660;28;20029;-88
2022/06/11 05:26:33;;;;;;;11.75;3.00;;;;;;;18.08;82.70;102102.72;5053436;28;20037;-88
2022/06/11 05:28:58;;;;;;;9.00;3.20;;;;;;;18.47;77.90;102093.00;5052987;28;20064;-87
2022/06/11 05:31:23;;;;;;;6.77;2.90;;;;;;;18.35;77.96;102098.78;5052647;28;20295;-87
2022/06/11 05:33:49;;;;;;;9.50;3.13;;;;;;;18.15;78.31;102097.81;5054244;28;20590;-87
2022/06/11 05:36:15;;;;;;;8.90;2.83;;;;;;;17.83;78.02;102100.88;5052613;28;20380;-88
2022/06/11 05:38:41;;;;;;;10.45;2.80;;;;;;;17.49;77.52;102106.94;5053665;28;20158;-88
2022/06/11 05:41:07;;;;;;;10.25;3.22;;;;;;;17.25;78.14;102102.88;5052532;28;20035;-88
2022/06/11 05:43:35;;;;;;;13.63;3.20;;;;;;;17.60;78.38;102103.09;5053436;28;20029;-88
2022/06/11 05:46:20;;;;;;;9.47;3.17;;;;;;;17.97;77.28;102112.75;5052647;28;20029;-88
2022/06/11 05:48:54;;;;;;;7.80;2.70;;;;;;;18.34;74.41;102120.78;5052859;28;20276;-87
2022/06/11 05:51:27;;;;;;;7.20;2.78;;;;;;;18.30;74.09;102115.91;5051990;28;20032;-88
2022/06/11 05:53:55;;;;;;;9.00;2.83;;;;;;;18.33;72.96;102103.69;5052398;28;20239;-88
2022/06/11 05:56:21;;;;;;;9.50;2.60;;;;;;;18.66;70.99;102114.06;5052422;28;20017;-88
2022/06/11 05:58:55;;;;;;;13.35;3.03;;;;;;;19.46;70.71;102112.91;5052304;28;20031;-88
2022/06/11 06:01:24;;;;;;;8.30;2.38;;;;;;;20.35;66.43;102104.56;5051401;28;20052;-87
2022/06/11 06:03:49;;;;;;;13.15;2.83;;;;;;;20.67;62.97;102116.63;5034803;28;20065;-88
2022/06/11 06:06:16;;;;;;;11.33;2.47;;;;;;;20.32;61.05;102116.03;5051860;28;20068;-88
2022/06/11 06:08:44;;;;;;;9.50;2.50;;;;;;;20.32;62.12;102108.66;5052752;28;20036;-88
2022/06/11 06:11:10;;;;;;;10.48;2.40;;;;;;;20.40;61.00;102112.66;5051728;28;20021;-88
2022/06/11 06:13:48;;;;;;;8.77;2.60;;;;;;;20.51;59.81;102111.41;5051652;28;20047;-89
2022/06/11 06:16:18;;;;;;;10.53;2.47;;;;;;;20.58;61.14;102116.50;5051647;28;20322;-89
2022/06/11 06:18:44;;;;;;;14.07;2.60;;;;;;;20.87;59.76;102115.53;5033874;28;20025;-88
2022/06/11 06:21:10;;;;;;;10.20;2.53;;;;;;;20.90;57.37;102114.94;5050663;28;20017;-88
2022/06/11 06:23:36;;;;;;;11.85;2.83;;;;;;;20.61;58.16;102125.97;5051836;28;20298;-88
2022/06/11 06:26:02;;;;;;;15.10;2.70;;;;;;;20.20;58.50;102136.31;5050832;28;20021;-88
2022/06/11 06:28:27;;;;;;;10.52;2.67;;;;;;;19.89;61.70;102133.97;5051304;28;20104;-88
2022/06/11 06:30:53;;;;;;;13.93;2.63;;;;;;;19.86;60.92;102131.00;5050906;28;20591;-87
2022/06/11 06:33:18;;;;;;;11.20;2.37;;;;;;;19.80;59.99;102136.47;5051175;28;20036;-88
2022/06/11 06:35:44;;;;;;;14.03;2.70;;;;;;;19.65;61.99;102131.22;5051174;28;20037;-88
2022/06/11 06:38:10;;;;;;;13.27;3.00;;;;;;;19.70;62.77;102136.59;5051096;28;20469;-87
2022/06/11 06:40:36;;;;;;;10.43;2.47;;;;;;;19.71;60.19;102140.13;5051162;28;20025;-87
2022/06/11 06:43:04;;;;;;;15.50;3.20;;;;;;;19.76;60.25;102135.44;5051099;28;20279;-87
2022/06/11 06:45:29;;;;;;;18.58;3.22;;;;;;;19.83;61.13;102148.69;5050925;28;20063;-87
2022/06/11 06:47:55;;;;;;;14.50;2.70;;;;;;;19.86;60.72;102137.22;5050940;28;20017;-88
2022/06/11 06:50:21;;;;;;;18.33;2.90;;;;;;;19.93;59.89;102143.16;5050831;28;20275;-88
2022/06/11 06:52:46;;;;;;;10.60;2.70;;;;;;;20.03;60.38;102146.84;5050883;28;20056;-88
2022/06/11 06:55:12;;;;;;;21.37;2.90;;;;;;;20.12;61.36;102147.84;5050887;28;20028;-87
2022/06/11 06:57:38;;;;;;;12.40;2.83;;;;;;;20.19;61.04;102144.78;5052182;28;20468;-88
2022/06/11 07:00:05;;;;;;;15.23;2.60;;;;;;;20.41;59.14;102150.47;5051472;28;20116;-87
2022/06/11 07:02:30;;;;;;;14.77;3.20;;;;;;;20.43;59.36;102142.81;5051038;28;20391;-88
2022/06/11 07:04:56;;;;;;;17.30;2.67;;;;;;;20.43;58.75;102140.09;5050653;28;20025;-87
2022/06/11 07:07:21;;;;;;;12.13;2.53;;;;;;;20.47;60.00;102134.06;5050868;28;20032;-87
2022/06/11 07:09:53;;;;;;;16.47;2.77;;;;;;;20.47;59.86;102148.50;5050615;28;20017;-88
2022/06/11 07:12:18;;;;;;;15.73;3.20;;;;;;;20.39;59.56;102140.97;5050290;28;20056;-87
2022/06/11 07:14:43;;;;;;;17.23;3.23;;;;;;;20.19;59.55;102136.59;5035620;28;20101;-88
2022/06/11 07:17:10;;;;;;;13.60;2.73;;;;;;;20.21;60.18;102123.53;5054750;28;20171;-88
2022/06/11 07:19:54;;;;;;;17.50;3.05;;;;;;;20.34;59.62;102130.97;5055065;28;20087;-87
2022/06/11 07:22:35;;;;;;;15.70;3.40;;;;;;;20.71;59.10;102118.47;5054409;28;20388;-87
2022/06/11 07:25:04;;;;;;;17.00;3.05;;;;;;;20.86;58.51;102124.81;5054964;28;20025;-87
2022/06/11 07:27:37;;;;;;;16.30;3.03;;;;;;;20.90;59.34;102128.56;5054750;28;20033;-87
2022/06/11 07:30:30;;;;;;;19.30;3.10;;;;;;;21.11;60.03;102141.84;5036675;28;20478;-87
2022/06/11 07:33:01;;;;;;;19.30;3.67;;;;;;;21.20;58.19;102145.50;5050709;28;20299;-88
2022/06/11 07:35:28;;;;;;;14.27;3.30;;;;;;;21.40;57.55;102133.44;5054936;28;20029;-87
2022/06/11 07:37:53;;;;;;;17.80;3.30;;;;;;;22.11;57.29;102148.75;5055390;28;20029;-87
2022/06/11 07:40:24;;;;;;;20.38;3.97;;;;;;;22.31;55.13;102155.72;5060637;28;20035;-86
2022/06/11 07:42:50;;;;;;;18.20;3.30;;;;;;;22.79;55.96;102157.13;5074756;28;20025;-87
2022/06/11 07:45:17;;;;;;;13.03;3.07;;;;;;;23.01;51.82;102160.97;5072281;28;20291;-87
2022/06/11 07:47:54;;;;;;;15.23;3.28;;;;;;;22.90;51.98;102151.41;5075148;28;20040;-87
2022/06/11 07:50:31;;;;;;;15.93;3.07;;;;;;;23.00;53.21;102145.72;5040344;28;20033;-86
2022/06/11 07:52:57;;;;;;;15.67;3.33;;;;;;;23.25;52.69;102146.22;5039663;28;20366;-87
2022/06/11 07:55:24;;;;;;;16.55;3.10;;;;;;;23.21;51.26;102145.22;5054668;28;20032;-86
2022/06/11 07:57:49;;;;;;;19.23;3.75;;;;;;;23.06;52.72;102157.34;5054110;28;20040;-86
2022/06/11 08:00:22;;;;;;;20.85;3.85;;;;;;;23.11;51.50;102147.06;5053854;28;20025;-87
2022/06/11 08:02:48;;;;;;;17.77;3.53;;;;;;;23.44;52.12;102148.75;5036241;28;20029;-86
2022/06/11 08:05:14;;;;;;;16.03;3.50;;;;;;;23.39;51.41;102151.59;5053524;28;20092;-87
2022/06/11 08:07:39;;;;;;;17.13;3.40;;;;;;;23.46;50.96;102159.34;5053709;28;20507;-87
2022/06/11 08:10:05;;;;;;;20.92;3.75;;;;;;;23.59;50.81;102158.44;5053196;28;20498;-87
2022/06/11 08:12:30;;;;;;;18.53;3.20;;;;;;;23.84;50.81;102156.94;5053281;28;20025;-86
2022/06/11 08:14:58;;;;;;;21.43;3.80;;;;;;;23.64;49.41;102161.06;5053492;28;20056;-87
2022/06/11 08:17:26;;;;;;;20.92;3.80;;;;;;;23.32;51.75;102176.66;5053104;28;20025;-87
2022/06/11 08:19:51;;;;;;;17.23;3.47;;;;;;;22.87;51.47;102176.63;5053224;28;20021;-87
2022/06/11 08:22:17;;;;;;;17.17;3.50;;;;;;;22.82;52.37;102175.63;5053030;28;20464;-87
2022/06/11 08:24:42;;;;;;;16.83;3.78;;;;;;;22.70;52.30;102175.38;5053627;28;20237;-87
2022/06/11 08:27:07;;;;;;;15.83;3.73;;;;;;;22.77;53.47;102170.31;5053325;28;20032;-87
2022/06/11 08:29:33;;;;;;;18.57;3.83;;;;;;;22.86;53.36;102178.56;5053277;28;20070;-87
2022/06/11 08:31:58;;;;;;;20.58;3.55;;;;;;;23.03;53.55;102180.59;5052343;28;20032;-87
2022/06/11 08:34:23;;;;;;;17.23;3.67;;;;;;;23.14;52.89;102184.72;5053375;28;20040;-86
2022/06/11 08:36:49;;;;;;;16.03;3.47;;;;;;;23.16;52.74;102178.13;5052346;28;20111;-87
2022/06/11 08:39:14;;;;;;;19.00;3.70;;;;;;;23.01;51.68;102182.84;5053139;28;20033;-87
2022/06/11 08:41:39;;;;;;;20.17;4.00;;;;;;;22.65;53.60;102186.41;5052675;28;20215;-87
2022/06/11 08:44:14;;;;;;;18.17;3.37;;;;;;;22.47;54.23;102191.69;5052761;28;20534;-86
2022/06/11 08:46:42;;;;;;;18.05;3.25;;;;;;;22.31;52.83;102180.28;5052788;28;20441;-87
2022/06/11 08:49:17;;;;;;;14.57;3.03;;;;;;;22.58;55.94;102191.50;5052568;28;20036;-87
2022/06/11 08:52:03;;;;;;;17.63;3.28;;;;;;;22.86;52.62;102183.22;5052577;28;20025;-87
2022/06/11 08:54:34;;;;;;;18.70;3.63;;;;;;;23.38;52.28;102186.34;5052554;28;20047;-87
2022/06/11 08:57:22;;;;;;;17.35;3.63;;;;;;;23.79;52.47;102184.47;5034634;28;20025;-87
2022/06/11 09:00:06;;;;;;;22.90;3.88;;;;;;;24.22;49.89;102174.81;5052003;28;20041;-87
2022/06/11 09:03:00;;;;;;;15.57;3.78;;;;;;;24.44;52.35;102176.59;5052408;28;20052;-87
2022/06/11 09:05:55;;;;;;;18.58;3.70;;;;;;;24.71;49.56;102180.22;5052685;28;20036;-86
2022/06/11 09:08:33;;;;;;;17.93;3.33;;;;;;;25.23;49.40;102179.34;5052716;28;20070;-87
2022/06/11 09:10:58;;;;;;;21.93;3.90;;;;;;;25.42;45.83;102180.94;5052277;28;20291;-87
2022/06/11 09:13:56;;;;;;;16.70;3.90;;;;;;;25.73;47.19;102184.53;5052478;28;20033;-87
2022/06/11 09:16:24;;;;;;;18.83;4.30;;;;;;;25.36;45.07;102177.53;5052494;28;20268;-86
2022/06/11 09:19:01;;;;;;;16.70;3.70;;;;;;;25.20;47.28;102173.72;5034350;28;20059;-87
2022/06/11 09:21:52;;;;;;;15.38;3.38;;;;;;;25.29;45.35;102176.44;5052342;28;20032;-87
2022/06/11 09:24:29;;;;;;;22.88;4.18;;;;;;;25.98;44.92;102166.34;5052372;28;20017;-87
2022/06/11 09:27:31;;;;;;;13.38;2.97;;;;;;;26.04;43.17;102164.19;5051861;28;20107;-87
2022/06/11 09:30:07;;;;;;;15.95;3.22;;;;;;;26.02;41.55;102175.53;5052103;28;20032;-87
2022/06/11 09:32:57;;;;;;;16.40;3.42;;;;;;;26.29;40.65;102173.47;5051874;28;20100;-88
2022/06/11 09:35:41;;;;;;;17.98;3.60;;;;;;;26.24;43.36;102173.66;5052167;28;20032;-86
2022/06/11 09:38:22;;;;;;;14.43;3.33;;;;;;;26.38;42.63;102181.66;5051779;28;20037;-87
2022/06/11 09:41:03;;;;;;;12.87;3.33;;;;;;;26.44;42.28;102183.84;5051438;28;20098;-87
2022/06/11 09:44:03;;;;;;;16.03;3.30;;;;;;;26.53;43.81;102185.72;5033986;28;20413;-87
2022/06/11 09:47:04;;;;;;;19.02;3.50;;;;;;;26.28;42.80;102193.84;5053731;28;20410;-88
2022/06/11 09:49:45;;;;;;;15.00;3.22;;;;;;;25.68;42.83;102186.31;5035657;28;20036;-86
2022/06/11 09:52:26;;;;;;;15.63;3.47;;;;;;;25.03;44.26;102183.56;5051223;28;20032;-87
2022/06/11 09:55:18;;;;;;;15.45;3.70;;;;;;;24.56;46.25;102183.41;5051677;28;20113;-88
2022/06/11 09:58:09;;;;;;;16.52;3.38;;;;;;;24.52;46.31;102177.75;5051696;28;20025;-87
2022/06/11 10:00:47;;;;;;;19.02;4.07;;;;;;;24.65;45.30;102178.72;5010112;28;20033;-87
2022/06/11 10:03:35;;;;;;;15.68;3.45;;;;;;;24.88;45.76;102173.91;5051896;28;20036;-87
2022/06/11 10:06:26;;;;;;;20.92;3.90;;;;;;;24.59;45.30;102171.78;5051525;28;20029;-87
2022/06/11 10:08:56;;;;;;;14.07;3.37;;;;;;;24.49;45.97;102160.03;5004547;28;20100;-88
2022/06/11 10:11:38;;;;;;;18.23;3.80;;;;;;;24.63;46.60;102176.31;5052004;28;20766;-88
2022/06/11 10:14:29;;;;;;;14.55;3.60;;;;;;;24.42;45.87;102172.59;5051097;28;20032;-87
2022/06/11 10:17:22;;;;;;;18.77;4.50;;;;;;;24.71;47.47;102173.91;5051159;28;20128;-87
2022/06/11 10:19:55;;;;;;;23.05;4.10;;;;;;;24.56;46.62;102170.50;5051192;28;20033;-86
2022/06/11 10:22:26;;;;;;;20.48;3.90;;;;;;;24.94;45.93;102172.63;5050826;28;20056;-86
2022/06/11 10:25:13;;;;;;;19.08;3.63;;;;;;;25.18;46.76;102182.28;5051554;28;20040;-87
2022/06/11 10:27:47;;;;;;;16.02;3.28;;;;;;;25.22;45.00;102172.25;5059602;28;20025;-87
2022/06/11 10:30:29;;;;;;;14.40;2.88;;;;;;;25.28;42.64;102177.56;5053719;28;20020;-89
2022/06/11 10:32:56;;;;;;;17.98;3.50;;;;;;;25.06;42.38;102176.63;5051548;28;20453;-87
2022/06/11 10:35:27;;;;;;;14.30;2.97;;;;;;;25.28;43.49;102175.63;5051379;28;20369;-87
2022/06/11 10:38:21;;;;;;;13.20;3.10;;;;;;;24.89;43.83;102169.25;5050990;28;20297;-87
2022/06/11 10:40:49;;;;;;;12.75;2.75;;;;;;;24.77;43.91;102169.88;5049806;28;20037;-88
2022/06/11 10:43:39;;;;;;;14.93;2.78;;;;;;;24.78;44.39;102177.78;5051115;28;20558;-87
2022/06/11 10:46:06;;;;;;;18.17;3.25;;;;;;;25.03;45.15;102175.34;5051075;28;20071;-87
2022/06/11 10:48:35;;;;;;;14.13;3.30;;;;;;;25.12;43.44;102178.06;5050982;28;20036;-87
2022/06/11 10:51:06;;;;;;;14.40;3.05;;;;;;;24.97;41.96;102178.59;5050513;28;20033;-87
2022/06/11 10:53:39;;;;;;;15.85;2.85;;;;;;;25.05;43.64;102173.09;5050498;28;20037;-86
2022/06/11 10:56:13;;;;;;;13.80;2.92;;;;;;;25.11;43.56;102165.50;5050801;28;20052;-87
2022/06/11 10:58:46;;;;;;;13.18;2.60;;;;;;;25.30;43.96;102167.84;5050474;28;20545;-87
2022/06/11 11:01:19;;;;;;;11.30;2.53;;;;;;;25.17;41.98;102161.47;5050066;28;20539;-88
2022/06/11 11:03:48;;;;;;;14.33;3.03;;;;;;;25.22;41.84;102169.50;5051114;28;20286;-87
2022/06/11 11:06:34;;;;;;;15.05;3.03;;;;;;;25.51;42.98;102178.16;5050401;28;20021;-88
2022/06/11 11:09:26;;;;;;;14.73;3.22;;;;;;;25.54;40.63;102172.84;5050637;28;20033;-89
2022/06/11 11:11:56;;;;;;;14.20;2.95;;;;;;;25.65;42.01;102158.75;5016260;28;20025;-90
2022/06/11 11:14:33;;;;;;;12.63;3.47;;;;;;;25.44;41.96;102164.94;5050183;28;20075;-90
2022/06/11 11:17:00;;;;;;;13.63;3.30;;;;;;;25.40;42.74;102161.22;5050473;28;20529;-89
2022/06/11 11:19:28;;;;;;;12.30;3.00;;;;;;;25.48;44.96;102160.44;5050976;28;20504;-90
2022/06/11 11:21:59;;;;;;;14.32;3.33;;;;;;;25.69;42.62;102165.97;5051846;28;20674;-92
2022/06/11 11:24:34;;;;;;;12.25;2.75;;;;;;;25.75;42.80;102160.31;5050756;28;20051;-92
2022/06/11 11:27:07;;;;;;;16.40;2.70;;;;;;;25.89;42.06;102149.91;5050495;28;20097;-91
2022/06/11 11:29:38;;;;;;;15.73;3.13;;;;;;;25.74;41.16;102145.81;5050363;28;20317;-91
2022/06/11 11:32:27;;;;;;;17.08;3.63;;;;;;;25.91;42.92;102158.63;5049847;28;20507;-87
2022/06/11 11:35:14;;;;;;;13.80;3.05;;;;;;;26.23;42.62;102158.31;5050147;28;20121;-90
2022/06/11 11:37:40;;;;;;;12.98;3.47;;;;;;;26.39;40.95;102145.59;5050368;28;20108;-93
2022/06/11 11:40:29;;;;;;;12.53;3.17;;;;;;;26.58;42.83;102153.34;5050200;28;20580;-89
2022/06/11 11:42:57;;;;;;;14.82;2.95;;;;;;;26.70;41.63;102154.56;5050792;28;20061;-92
2022/06/11 11:45:28;;;;;;;15.73;3.40;;;;;;;26.32;40.47;102156.28;5050254;28;20480;-88